createdAt,value
2019-02-02T00:00:47.278Z,25.00
2019-02-02T00:02:51.330Z,26.60
2019-02-02T00:04:55.066Z,26.50
2019-02-02T00:07:00.614Z,25.77
2019-02-02T00:09:07.706Z,28.07
2019-02-02T00:11:11.467Z,25.20
2019-02-02T00:13:15.143Z,27.40
2019-02-02T00:15:18.791Z,29.17
2019-02-02T00:17:22.561Z,28.90
2019-02-02T00:19:26.129Z,28.00
2019-02-02T00:21:29.920Z,27.97
2019-02-02T00:23:33.575Z,27.17
2019-02-02T00:25:37.325Z,27.40
2019-02-02T00:27:41.805Z,26.10
2019-02-02T00:29:45.503Z,26.63
2019-02-02T00:31:49.352Z,25.13
2019-02-02T00:33:52.989Z,24.90
2019-02-02T00:35:56.728Z,27.80
2019-02-02T00:38:00.434Z,24.13
2019-02-02T00:40:05.932Z,24.87
2019-02-02T00:42:09.598Z,28.20
2019-02-02T00:44:13.315Z,27.90
2019-02-02T00:46:17.077Z,26.43
2019-02-02T00:48:20.867Z,25.63
2019-02-02T00:50:24.602Z,27.30
2019-02-02T00:52:28.307Z,25.00
2019-02-02T00:54:31.968Z,25.57
2019-02-02T00:56:35.772Z,24.30
2019-02-02T00:58:39.449Z,23.50
2019-02-02T01:00:43.229Z,24.43
2019-02-02T01:02:46.994Z,22.90
2019-02-02T01:04:50.705Z,24.43
2019-02-02T01:06:54.444Z,24.97
2019-02-02T01:08:58.228Z,23.80
2019-02-02T01:11:02.084Z,24.37
2019-02-02T01:13:06.462Z,26.60
2019-02-02T01:15:12.469Z,25.30
2019-02-02T01:17:16.160Z,26.60
2019-02-02T01:19:19.948Z,27.60
2019-02-02T01:21:23.667Z,25.20
2019-02-02T01:23:27.473Z,27.23
2019-02-02T01:25:31.192Z,26.93
2019-02-02T01:27:34.918Z,27.10
2019-02-02T01:29:38.712Z,27.43
2019-02-02T01:31:42.367Z,27.10
2019-02-02T01:33:46.182Z,25.07
2019-02-02T01:35:49.820Z,27.23
2019-02-02T01:37:53.621Z,25.77
2019-02-02T01:39:57.400Z,29.27
2019-02-02T01:42:01.159Z,29.10
2019-02-02T01:44:05.341Z,28.97
2019-02-02T01:46:09.116Z,28.07
2019-02-02T01:48:12.972Z,27.20
2019-02-02T01:50:19.121Z,26.73
2019-02-02T01:52:22.766Z,29.30
2019-02-02T01:54:26.527Z,27.97
2019-02-02T01:56:30.276Z,28.90
2019-02-02T01:58:34.122Z,26.77
2019-02-02T02:00:39.231Z,26.23
2019-02-02T02:02:43.338Z,27.60
2019-02-02T02:04:47.198Z,28.13
2019-02-02T02:06:50.845Z,28.67
2019-02-02T02:08:54.750Z,28.50
2019-02-02T02:10:58.551Z,30.30
2019-02-02T02:13:02.316Z,29.77
2019-02-02T02:15:08.945Z,28.67
2019-02-02T02:17:12.708Z,29.63
2019-02-02T02:19:16.407Z,28.07
2019-02-02T02:21:20.193Z,29.20
2019-02-02T02:23:25.404Z,29.60
2019-02-02T02:25:29.116Z,27.60
2019-02-02T02:27:32.943Z,27.23
2019-02-02T02:29:36.671Z,26.90
2019-02-02T02:31:40.430Z,29.23
2019-02-02T02:33:44.153Z,26.03
2019-02-02T02:35:48.001Z,25.53
2019-02-02T02:37:51.814Z,26.90
2019-02-02T02:39:55.621Z,25.70
2019-02-02T02:41:59.381Z,25.27
2019-02-02T02:44:03.214Z,26.23
2019-02-02T02:46:07.032Z,27.37
2019-02-02T02:48:10.824Z,25.47
2019-02-02T02:50:16.513Z,26.90
2019-02-02T02:52:20.320Z,25.70
2019-02-02T02:54:24.091Z,28.30
2019-02-02T02:56:27.903Z,28.47
2019-02-02T02:58:41.129Z,26.60
2019-02-02T03:00:36.913Z,26.87
2019-02-02T03:02:40.646Z,26.50
2019-02-02T03:04:44.501Z,25.80
2019-02-02T03:06:48.260Z,25.70
2019-02-02T03:08:51.994Z,26.07
2019-02-02T03:10:55.763Z,25.93
2019-02-02T03:12:59.332Z,25.67
2019-02-02T03:15:04.253Z,25.50
2019-02-02T03:17:08.006Z,29.77
2019-02-02T03:19:13.392Z,28.50
2019-02-02T03:21:17.179Z,25.80
2019-02-02T03:23:20.850Z,27.30
2019-02-02T03:25:27.893Z,25.97
2019-02-02T03:27:31.593Z,27.70
2019-02-02T03:29:36.778Z,28.67
2019-02-02T03:31:40.541Z,27.87
2019-02-02T03:33:44.213Z,26.93
2019-02-02T03:35:48.059Z,27.50
2019-02-02T03:37:52.418Z,30.17
2019-02-02T03:39:56.203Z,26.30
2019-02-02T03:41:59.941Z,27.80
2019-02-02T03:44:03.784Z,26.73
2019-02-02T03:46:07.507Z,26.97
2019-02-02T03:48:11.259Z,27.73
2019-02-02T03:50:15.085Z,28.30
2019-02-02T03:52:18.781Z,26.20
2019-02-02T03:54:22.445Z,25.93
2019-02-02T03:56:26.254Z,26.13
2019-02-02T03:58:30.089Z,28.90
2019-02-02T04:00:33.826Z,28.10
2019-02-02T04:02:37.568Z,27.07
2019-02-02T04:04:41.784Z,26.87
2019-02-02T04:06:45.491Z,27.13
2019-02-02T04:08:49.077Z,27.27
2019-02-02T04:10:52.786Z,29.07
2019-02-02T04:12:56.572Z,28.00
2019-02-02T04:15:00.414Z,27.37
2019-02-02T04:17:04.434Z,27.20
2019-02-02T04:19:08.197Z,27.03
2019-02-02T04:21:12.005Z,28.60
2019-02-02T04:23:15.865Z,28.83
2019-02-02T04:25:20.903Z,29.20
2019-02-02T04:27:24.776Z,32.10
2019-02-02T04:29:28.507Z,32.07
2019-02-02T04:31:32.237Z,31.53
2019-02-02T04:33:36.282Z,29.30
2019-02-02T04:35:39.984Z,29.17
2019-02-02T04:37:43.785Z,27.57
2019-02-02T04:39:47.551Z,30.63
2019-02-02T04:41:51.207Z,30.87
2019-02-02T04:43:54.986Z,30.20
2019-02-02T04:45:58.754Z,29.87
2019-02-02T04:48:02.459Z,30.37
2019-02-02T04:50:08.845Z,31.43
2019-02-02T04:52:12.589Z,30.73
2019-02-02T04:54:16.368Z,28.50
2019-02-02T04:56:20.128Z,30.47
2019-02-02T04:58:23.809Z,27.80
2019-02-02T05:00:28.043Z,29.30
2019-02-02T05:02:31.797Z,27.43
2019-02-02T05:04:35.546Z,27.13
2019-02-02T05:06:39.280Z,26.50
2019-02-02T05:08:43.044Z,26.70
2019-02-02T05:10:46.648Z,27.07
2019-02-02T05:12:50.506Z,30.07
2019-02-02T05:14:54.342Z,30.30
2019-02-02T05:16:57.984Z,26.70
2019-02-02T05:19:01.829Z,28.80
2019-02-02T05:21:05.569Z,26.13
2019-02-02T05:23:09.287Z,27.67
2019-02-02T05:25:13.253Z,25.03
2019-02-02T05:27:16.967Z,27.20
2019-02-02T05:29:20.674Z,27.73
2019-02-02T05:31:24.421Z,28.20
2019-02-02T05:33:28.179Z,27.40
2019-02-02T05:35:31.910Z,26.37
2019-02-02T05:37:35.565Z,28.40
2019-02-02T05:39:39.275Z,26.57
2019-02-02T05:41:42.930Z,26.30
2019-02-02T05:43:46.656Z,27.80
2019-02-02T05:45:50.477Z,28.60
2019-02-02T05:47:54.231Z,27.13
2019-02-02T05:49:58.069Z,28.27
2019-02-02T05:52:02.000Z,27.20
2019-02-02T05:54:05.702Z,28.10
2019-02-02T05:56:09.504Z,27.80
2019-02-02T05:58:13.373Z,28.33
2019-02-02T06:00:27.310Z,28.13
2019-02-02T06:02:31.040Z,29.17
2019-02-02T06:04:34.823Z,30.13
2019-02-02T06:06:38.507Z,28.50
2019-02-02T06:08:42.245Z,31.03
2019-02-02T06:10:46.082Z,27.87
2019-02-02T06:12:49.852Z,30.23
2019-02-02T06:14:53.592Z,26.70
2019-02-02T06:16:57.338Z,28.10
2019-02-02T06:19:01.001Z,26.33
2019-02-02T06:21:04.890Z,28.10
2019-02-02T06:23:08.677Z,26.20
2019-02-02T06:25:14.850Z,26.37
2019-02-02T06:27:18.655Z,26.20
2019-02-02T06:29:22.265Z,26.70
2019-02-02T06:31:26.026Z,28.23
2019-02-02T06:33:29.675Z,29.57
2019-02-02T06:35:33.447Z,27.60
2019-02-02T06:37:37.220Z,27.17
2019-02-02T06:39:40.985Z,29.47
2019-02-02T06:41:44.730Z,28.67
2019-02-02T06:43:48.399Z,27.70
2019-02-02T06:45:52.106Z,27.60
2019-02-02T06:47:56.070Z,28.00
2019-02-02T06:49:59.779Z,28.10
2019-02-02T06:52:03.533Z,29.10
2019-02-02T06:54:07.310Z,27.40
2019-02-02T06:56:11.076Z,32.30
2019-02-02T06:58:14.761Z,28.67
2019-02-02T07:00:20.972Z,27.73
2019-02-02T07:02:24.704Z,28.07
2019-02-02T07:04:28.524Z,25.47
2019-02-02T07:06:32.177Z,27.30
2019-02-02T07:08:35.925Z,27.90
2019-02-02T07:10:39.671Z,27.83
2019-02-02T07:12:43.561Z,27.33
2019-02-02T07:14:47.217Z,33.73
2019-02-02T07:16:51.001Z,32.13
2019-02-02T07:18:54.808Z,28.80
2019-02-02T07:20:58.632Z,31.77
2019-02-02T07:23:02.330Z,29.23
2019-02-02T07:25:08.183Z,28.77
2019-02-02T07:27:11.884Z,27.90
2019-02-02T07:29:15.609Z,27.40
2019-02-02T07:31:19.361Z,28.07
2019-02-02T07:33:25.252Z,26.80
2019-02-02T07:35:28.933Z,25.57
2019-02-02T07:37:32.705Z,28.03
2019-02-02T07:39:36.303Z,26.00
2019-02-02T07:41:41.200Z,29.27
2019-02-02T07:43:45.306Z,28.93
2019-02-02T07:45:49.137Z,32.70
2019-02-02T07:47:52.896Z,29.07
2019-02-02T07:49:56.817Z,27.97
2019-02-02T07:52:00.647Z,32.40
2019-02-02T07:54:04.903Z,30.53
2019-02-02T07:56:08.532Z,32.10
2019-02-02T07:58:12.317Z,28.57
2019-02-02T08:00:24.526Z,29.03
2019-02-02T08:02:28.316Z,27.20
2019-02-02T08:04:32.162Z,28.60
2019-02-02T08:06:35.885Z,27.60
2019-02-02T08:08:39.582Z,28.63
2019-02-02T08:10:43.321Z,27.93
2019-02-02T08:12:47.320Z,28.20
2019-02-02T08:14:51.126Z,27.30
2019-02-02T08:16:54.857Z,27.20
2019-02-02T08:18:58.553Z,25.57
2019-02-02T08:21:02.241Z,27.20
2019-02-02T08:23:06.111Z,27.87
2019-02-02T08:25:12.335Z,29.07
2019-02-02T08:27:15.926Z,30.17
2019-02-02T08:29:19.708Z,38.10
2019-02-02T08:31:23.494Z,35.10
2019-02-02T08:33:27.285Z,36.63
2019-02-02T08:35:31.033Z,34.20
2019-02-02T08:37:34.992Z,33.60
2019-02-02T08:39:38.724Z,35.60
2019-02-02T08:41:42.526Z,35.20
2019-02-02T08:43:46.244Z,35.43
2019-02-02T08:45:49.983Z,36.17
2019-02-02T08:47:53.646Z,38.10
2019-02-02T08:49:57.397Z,35.37
2019-02-02T08:52:01.211Z,37.17
2019-02-02T08:54:04.996Z,35.00
2019-02-02T08:56:09.984Z,34.33
2019-02-02T08:58:13.807Z,34.27
2019-02-02T09:00:19.495Z,35.20
2019-02-02T09:02:23.217Z,34.20
2019-02-02T09:04:27.081Z,34.00
2019-02-02T09:06:38.585Z,34.50
2019-02-02T09:08:36.095Z,34.27
2019-02-02T09:10:40.567Z,37.67
2019-02-02T09:12:44.218Z,34.70
2019-02-02T09:14:47.920Z,36.63
2019-02-02T09:16:51.617Z,34.77
2019-02-02T09:18:55.404Z,34.60
2019-02-02T09:20:59.054Z,32.07
2019-02-02T09:23:06.361Z,32.60
2019-02-02T09:25:13.551Z,36.40
2019-02-02T09:27:17.312Z,32.80
2019-02-02T09:29:21.030Z,34.17
2019-02-02T09:31:24.843Z,32.53
2019-02-02T09:33:28.500Z,35.00
2019-02-02T09:35:32.276Z,39.17
2019-02-02T09:37:36.051Z,41.90
2019-02-02T09:39:39.724Z,39.40
2019-02-02T09:41:43.447Z,38.43
2019-02-02T09:43:47.104Z,33.43
2019-02-02T09:45:50.912Z,30.03
2019-02-02T09:47:54.654Z,30.47
2019-02-02T09:50:00.043Z,31.80
2019-02-02T09:52:03.802Z,29.50
2019-02-02T09:54:09.146Z,26.10
2019-02-02T09:56:13.111Z,27.80
2019-02-02T09:58:16.765Z,25.67
2019-02-02T10:00:25.648Z,23.50
2019-02-02T10:02:30.627Z,25.07
2019-02-02T10:04:34.319Z,28.37
2019-02-02T10:06:38.030Z,30.07
2019-02-02T10:08:41.768Z,30.17
2019-02-02T10:10:45.613Z,29.63
2019-02-02T10:12:49.414Z,26.13
2019-02-02T10:14:53.187Z,28.60
2019-02-02T10:16:56.867Z,27.77
2019-02-02T10:19:00.686Z,27.80
2019-02-02T10:21:04.493Z,30.73
2019-02-02T10:23:09.940Z,34.00
2019-02-02T10:25:16.284Z,32.07
2019-02-02T10:27:19.947Z,31.27
2019-02-02T10:29:23.694Z,27.57
2019-02-02T10:31:38.914Z,28.03
2019-02-02T10:33:32.831Z,26.20
2019-02-02T10:35:36.497Z,26.60
2019-02-02T10:37:40.240Z,29.20
2019-02-02T10:39:43.914Z,38.63
2019-02-02T10:41:47.745Z,26.73
2019-02-02T10:43:51.427Z,25.57
2019-02-02T10:45:55.195Z,24.00
2019-02-02T10:47:58.922Z,23.27
2019-02-02T10:50:02.594Z,24.70
2019-02-02T10:52:06.276Z,23.70
2019-02-02T10:54:10.004Z,23.57
2019-02-02T10:56:13.732Z,24.20
2019-02-02T10:58:17.457Z,25.23
2019-02-02T11:00:26.936Z,24.10
2019-02-02T11:02:30.649Z,22.03
2019-02-02T11:04:34.265Z,21.03
2019-02-02T11:06:38.100Z,21.07
2019-02-02T11:08:41.851Z,21.13
2019-02-02T11:10:45.643Z,21.13
2019-02-02T11:12:49.671Z,23.07
2019-02-02T11:14:53.413Z,22.07
2019-02-02T11:16:57.242Z,24.07
2019-02-02T11:19:00.983Z,19.93
2019-02-02T11:21:04.630Z,20.00
2019-02-02T11:23:08.543Z,21.60
2019-02-02T11:25:13.248Z,20.87
2019-02-02T11:27:17.037Z,25.80
2019-02-02T11:29:21.771Z,32.90
2019-02-02T11:31:25.543Z,23.77
2019-02-02T11:33:31.423Z,24.20
2019-02-02T11:35:35.126Z,27.37
2019-02-02T11:37:38.911Z,27.40
2019-02-02T11:39:42.633Z,25.20
2019-02-02T11:41:46.338Z,23.83
2019-02-02T11:43:50.022Z,22.67
2019-02-02T11:45:53.759Z,22.57
2019-02-02T11:47:57.548Z,19.70
2019-02-02T11:50:01.267Z,19.00
2019-02-02T11:52:05.004Z,19.03
2019-02-02T11:54:08.749Z,17.43
2019-02-02T11:56:12.486Z,19.00
2019-02-02T11:58:16.215Z,17.53
2019-02-02T12:00:28.276Z,18.30
2019-02-02T12:02:32.019Z,17.50
2019-02-02T12:04:35.753Z,17.80
2019-02-02T12:06:39.438Z,16.37
2019-02-02T12:08:43.217Z,15.90
2019-02-02T12:10:46.947Z,14.10
2019-02-02T12:12:50.772Z,15.30
2019-02-02T12:14:56.886Z,19.93
2019-02-02T12:16:59.818Z,31.50
2019-02-02T12:19:03.529Z,91.40
2019-02-02T12:21:07.288Z,31.10
2019-02-02T12:23:11.127Z,22.03
2019-02-02T12:25:15.203Z,16.70
2019-02-02T12:27:18.854Z,15.23
2019-02-02T12:29:23.968Z,15.53
2019-02-02T12:31:27.622Z,15.07
2019-02-02T12:33:31.353Z,15.70
2019-02-02T12:35:35.162Z,15.97
2019-02-02T12:37:38.809Z,15.93
2019-02-02T12:39:42.518Z,17.63
2019-02-02T12:41:46.244Z,14.27
2019-02-02T12:43:50.053Z,13.47
2019-02-02T12:45:53.822Z,16.87
2019-02-02T12:47:57.475Z,18.10
2019-02-02T12:50:01.192Z,17.40
2019-02-02T12:52:05.063Z,18.43
2019-02-02T12:54:08.785Z,18.50
2019-02-02T12:56:12.426Z,21.23
2019-02-02T12:58:16.149Z,21.87
2019-02-02T13:00:20.851Z,23.70
2019-02-02T13:02:25.515Z,24.73
2019-02-02T13:04:29.394Z,23.93
2019-02-02T13:06:33.111Z,24.60
2019-02-02T13:08:36.771Z,24.03
2019-02-02T13:10:40.618Z,27.57
2019-02-02T13:12:44.320Z,28.10
2019-02-02T13:14:48.024Z,30.33
2019-02-02T13:16:51.836Z,27.23
2019-02-02T13:18:55.569Z,28.47
2019-02-02T13:20:59.348Z,28.03
2019-02-02T13:23:03.072Z,25.13
2019-02-02T13:25:09.930Z,24.30
2019-02-02T13:27:13.597Z,22.67
2019-02-02T13:29:17.328Z,33.30
2019-02-02T13:31:21.198Z,24.40
2019-02-02T13:33:24.822Z,21.60
2019-02-02T13:35:30.387Z,22.63
2019-02-02T13:37:34.041Z,19.17
2019-02-02T13:39:37.757Z,19.83
2019-02-02T13:41:41.567Z,21.00
2019-02-02T13:43:45.287Z,19.90
2019-02-02T13:45:48.988Z,19.47
2019-02-02T13:47:52.822Z,18.00
2019-02-02T13:49:56.595Z,18.50
2019-02-02T13:52:00.329Z,17.27
2019-02-02T13:54:04.339Z,17.80
2019-02-02T13:56:08.157Z,17.27
2019-02-02T13:58:11.867Z,15.63
2019-02-02T14:00:24.379Z,15.03
2019-02-02T14:02:28.064Z,14.83
2019-02-02T14:04:31.763Z,17.10
2019-02-02T14:06:35.522Z,15.57
2019-02-02T14:08:39.183Z,15.50
2019-02-02T14:10:42.980Z,15.87
2019-02-02T14:12:46.722Z,16.77
2019-02-02T14:14:50.387Z,13.50
2019-02-02T14:16:54.095Z,11.87
2019-02-02T14:18:57.897Z,11.33
2019-02-02T14:21:01.588Z,12.20
2019-02-02T14:23:05.654Z,12.93
2019-02-02T14:25:11.999Z,14.00
2019-02-02T14:27:15.623Z,14.73
2019-02-02T14:29:19.328Z,15.17
2019-02-02T14:31:23.060Z,15.00
2019-02-02T14:33:27.418Z,15.33
2019-02-02T14:35:31.149Z,15.63
2019-02-02T14:37:34.980Z,16.80
2019-02-02T14:39:39.159Z,16.57
2019-02-02T14:41:42.935Z,16.57
2019-02-02T14:43:46.611Z,17.50
2019-02-02T14:45:50.405Z,17.27
2019-02-02T14:47:55.931Z,20.60
2019-02-02T14:49:59.501Z,24.10
2019-02-02T14:52:03.269Z,28.13
2019-02-02T14:54:07.108Z,27.30
2019-02-02T14:56:11.211Z,18.00
2019-02-02T14:58:14.978Z,20.00
2019-02-02T15:00:20.711Z,17.27
2019-02-02T15:02:24.409Z,17.03
2019-02-02T15:04:28.090Z,18.00
2019-02-02T15:06:31.904Z,18.57
2019-02-02T15:08:36.889Z,18.03
2019-02-02T15:10:41.866Z,17.17
2019-02-02T15:12:45.593Z,17.73
2019-02-02T15:14:49.328Z,20.07
2019-02-02T15:16:53.183Z,21.03
2019-02-02T15:18:56.806Z,22.10
2019-02-02T15:21:00.540Z,21.87
2019-02-02T15:23:04.814Z,20.50
2019-02-02T15:25:08.957Z,18.37
2019-02-02T15:27:14.697Z,20.67
2019-02-02T15:29:17.839Z,20.60
2019-02-02T15:31:21.580Z,26.37
2019-02-02T15:33:37.284Z,26.53
2019-02-02T15:35:30.692Z,22.73
2019-02-02T15:37:34.533Z,21.60
2019-02-02T15:39:38.193Z,23.27
2019-02-02T15:41:52.395Z,22.70
2019-02-02T15:43:47.571Z,23.27
2019-02-02T15:45:51.302Z,23.23
2019-02-02T15:47:55.058Z,23.67
2019-02-02T15:49:58.731Z,23.00
2019-02-02T15:52:02.549Z,22.43
2019-02-02T15:54:06.371Z,23.43
2019-02-02T15:56:10.033Z,23.07
2019-02-02T15:58:13.859Z,23.47
2019-02-02T16:00:23.343Z,22.90
2019-02-02T16:02:27.067Z,24.70
2019-02-02T16:04:30.845Z,23.50
2019-02-02T16:06:34.364Z,22.03
2019-02-02T16:08:38.250Z,23.70
2019-02-02T16:10:42.105Z,22.70
2019-02-02T16:12:46.076Z,24.60
2019-02-02T16:14:49.706Z,27.00
2019-02-02T16:16:53.719Z,32.93
2019-02-02T16:18:57.369Z,36.60
2019-02-02T16:21:03.475Z,32.67
2019-02-02T16:23:09.996Z,35.07
2019-02-02T16:25:16.002Z,43.90
2019-02-02T16:27:20.846Z,42.33
2019-02-02T16:29:24.893Z,29.03
2019-02-02T16:31:29.867Z,30.10
2019-02-02T16:33:34.873Z,28.10
2019-02-02T16:35:38.928Z,36.43
2019-02-02T16:37:42.633Z,29.20
2019-02-02T16:39:46.815Z,30.40
2019-02-02T16:41:50.548Z,34.43
2019-02-02T16:43:54.297Z,39.17
2019-02-02T16:45:57.944Z,36.23
2019-02-02T16:48:01.668Z,27.07
2019-02-02T16:50:11.380Z,24.10
2019-02-02T16:52:15.070Z,26.40
2019-02-02T16:54:18.704Z,27.03
2019-02-02T16:56:22.437Z,26.10
2019-02-02T16:58:26.240Z,24.70
2019-02-02T17:00:36.329Z,22.77
2019-02-02T17:02:41.930Z,21.93
2019-02-02T17:04:45.758Z,23.50
2019-02-02T17:06:49.462Z,22.83
2019-02-02T17:08:53.409Z,22.17
2019-02-02T17:10:57.517Z,21.67
2019-02-02T17:13:01.211Z,23.90
2019-02-02T17:15:07.965Z,22.33
2019-02-02T17:17:11.706Z,22.60
2019-02-02T17:19:15.434Z,22.20
2019-02-02T17:21:20.033Z,22.00
2019-02-02T17:23:24.440Z,21.13
2019-02-02T17:25:29.508Z,22.20
2019-02-02T17:27:34.116Z,21.97
2019-02-02T17:29:38.488Z,23.97
2019-02-02T17:31:42.324Z,23.67
2019-02-02T17:33:47.585Z,26.00
2019-02-02T17:35:52.329Z,24.87
2019-02-02T17:37:56.082Z,24.90
2019-02-02T17:40:01.216Z,25.23
2019-02-02T17:42:05.264Z,25.30
2019-02-02T17:44:09.385Z,31.33
2019-02-02T17:46:13.637Z,30.80
2019-02-02T17:48:18.034Z,28.27
2019-02-02T17:50:25.549Z,30.70
2019-02-02T17:52:29.784Z,28.93
2019-02-02T17:54:34.467Z,28.43
2019-02-02T17:56:38.402Z,32.50
2019-02-02T17:58:42.258Z,29.80
2019-02-02T18:00:53.389Z,27.90
2019-02-02T18:02:59.086Z,29.10
2019-02-02T18:05:05.014Z,29.27
2019-02-02T18:07:08.851Z,26.70
2019-02-02T18:09:14.615Z,26.20
2019-02-02T18:11:21.419Z,30.60
2019-02-02T18:13:25.923Z,27.50
2019-02-02T18:15:29.788Z,32.77
2019-02-02T18:17:33.418Z,29.77
2019-02-02T18:19:37.402Z,30.40
2019-02-02T18:21:41.433Z,30.00
2019-02-02T18:23:45.155Z,30.50
2019-02-02T18:25:49.102Z,29.53
2019-02-02T18:27:54.178Z,29.67
2019-02-02T18:29:58.514Z,29.83
2019-02-02T18:32:12.867Z,30.10
2019-02-02T18:34:07.637Z,27.60
2019-02-02T18:36:11.466Z,31.87
2019-02-02T18:38:15.283Z,35.47
2019-02-02T18:40:21.045Z,33.00
2019-02-02T18:42:24.831Z,33.50
2019-02-02T18:44:28.460Z,31.57
2019-02-02T18:46:32.235Z,35.47
2019-02-02T18:48:36.050Z,32.17
2019-02-02T18:50:41.203Z,32.30
2019-02-02T18:52:48.268Z,31.77
2019-02-02T18:54:52.052Z,33.63
2019-02-02T18:56:55.795Z,35.00
2019-02-02T18:58:59.569Z,29.40
2019-02-02T19:01:03.478Z,30.83
2019-02-02T19:03:07.681Z,31.00
2019-02-02T19:05:12.907Z,30.80
2019-02-02T19:07:16.633Z,33.23
2019-02-02T19:09:20.636Z,31.23
2019-02-02T19:11:24.929Z,29.30
2019-02-02T19:13:28.808Z,30.47
2019-02-02T19:15:33.153Z,30.80
2019-02-02T19:17:37.072Z,34.87
2019-02-02T19:19:40.901Z,32.70
2019-02-02T19:21:45.026Z,30.70
2019-02-02T19:23:48.769Z,30.93
2019-02-02T19:25:52.508Z,31.73
2019-02-02T19:27:56.284Z,30.63
2019-02-02T19:29:59.954Z,28.97
2019-02-02T19:32:03.732Z,29.13
2019-02-02T19:34:07.460Z,26.63
2019-02-02T19:36:11.271Z,28.63
2019-02-02T19:38:20.115Z,27.97
2019-02-02T19:40:32.393Z,26.63
2019-02-02T19:42:32.153Z,25.30
2019-02-02T19:44:32.938Z,24.83
2019-02-02T19:46:36.822Z,24.50
2019-02-02T19:48:40.749Z,24.83
2019-02-02T19:50:45.257Z,22.73
2019-02-02T19:52:52.746Z,21.57
2019-02-02T19:54:57.320Z,22.83
2019-02-02T19:57:01.753Z,22.47
2019-02-02T19:59:06.524Z,21.77
2019-02-02T20:01:10.994Z,21.77
2019-02-02T20:03:14.692Z,21.83
2019-02-02T20:05:28.266Z,22.80
2019-02-02T20:07:23.827Z,24.57
2019-02-02T20:09:29.267Z,24.10
2019-02-02T20:11:32.868Z,25.40
2019-02-02T20:13:36.563Z,27.57
2019-02-02T20:15:40.345Z,26.70
2019-02-02T20:17:45.795Z,25.33
2019-02-02T20:19:49.578Z,25.67
2019-02-02T20:21:53.330Z,23.17
2019-02-02T20:23:57.009Z,24.77
2019-02-02T20:26:00.680Z,25.33
2019-02-02T20:28:04.553Z,25.20
2019-02-02T20:30:13.995Z,25.20
2019-02-02T20:32:17.759Z,22.40
2019-02-02T20:34:21.380Z,27.03
2019-02-02T20:36:25.112Z,24.13
2019-02-02T20:38:28.754Z,22.77
2019-02-02T20:40:32.526Z,23.47
2019-02-02T20:42:36.331Z,23.20
2019-02-02T20:44:40.301Z,24.53
2019-02-02T20:46:44.042Z,24.40
2019-02-02T20:48:47.807Z,22.00
2019-02-02T20:50:51.529Z,25.53
2019-02-02T20:52:55.619Z,25.00
2019-02-02T20:54:59.303Z,24.60
2019-02-02T20:57:03.044Z,25.33
2019-02-02T20:59:06.838Z,23.97
2019-02-02T21:01:10.597Z,22.80
2019-02-02T21:03:14.293Z,23.47
2019-02-02T21:05:18.062Z,24.00
2019-02-02T21:07:21.764Z,24.00
2019-02-02T21:09:25.400Z,22.90
2019-02-02T21:11:30.027Z,24.53
2019-02-02T21:13:33.777Z,21.60
2019-02-02T21:15:37.789Z,23.17
2019-02-02T21:17:41.926Z,24.67
2019-02-02T21:19:45.664Z,24.63
2019-02-02T21:21:49.410Z,22.37
2019-02-02T21:23:54.979Z,22.23
2019-02-02T21:25:58.508Z,24.13
2019-02-02T21:28:02.234Z,25.03
2019-02-02T21:30:08.985Z,26.03
2019-02-02T21:32:12.732Z,21.20
2019-02-02T21:34:17.341Z,22.83
2019-02-02T21:36:20.939Z,21.07
2019-02-02T21:38:24.791Z,22.07
2019-02-02T21:40:30.538Z,17.80
2019-02-02T21:42:34.133Z,19.50
2019-02-02T21:44:43.343Z,15.80
2019-02-02T21:46:43.260Z,15.10
2019-02-02T21:48:46.902Z,15.67
2019-02-02T21:50:50.960Z,15.27
2019-02-02T21:52:55.090Z,14.73
2019-02-02T21:54:58.942Z,12.77
2019-02-02T21:57:02.685Z,13.00
2019-02-02T21:59:06.487Z,15.00
2019-02-02T22:01:10.567Z,13.63
2019-02-02T22:03:15.422Z,13.30
2019-02-02T22:05:19.580Z,14.80
2019-02-02T22:07:23.959Z,13.10
2019-02-02T22:09:27.762Z,13.47
2019-02-02T22:11:31.510Z,13.60
2019-02-02T22:13:35.266Z,13.70
2019-02-02T22:15:39.112Z,16.00
2019-02-02T22:17:42.793Z,14.47
2019-02-02T22:19:46.468Z,16.90
2019-02-02T22:21:50.251Z,13.07
2019-02-02T22:23:54.933Z,13.30
2019-02-02T22:25:58.993Z,13.53
2019-02-02T22:28:02.726Z,11.77
2019-02-02T22:30:09.443Z,11.50
2019-02-02T22:32:13.270Z,12.57
2019-02-02T22:34:16.915Z,11.13
2019-02-02T22:36:27.628Z,13.30
2019-02-02T22:38:26.086Z,13.13
2019-02-02T22:40:29.854Z,12.23
2019-02-02T22:42:33.528Z,11.90
2019-02-02T22:44:37.284Z,11.17
2019-02-02T22:46:41.544Z,12.73
2019-02-02T22:48:45.168Z,12.60
2019-02-02T22:50:49.115Z,12.73
2019-02-02T22:52:53.736Z,11.20
2019-02-02T22:54:57.501Z,13.27
2019-02-02T22:57:01.241Z,13.80
2019-02-02T22:59:04.990Z,13.37
2019-02-02T23:01:14.363Z,14.27
2019-02-02T23:03:21.137Z,14.00
2019-02-02T23:05:47.191Z,14.43
2019-02-02T23:07:53.885Z,14.10
2019-02-02T23:10:18.613Z,15.57
2019-02-02T23:12:40.219Z,14.53
2019-02-02T23:14:49.827Z,15.77
2019-02-02T23:16:53.586Z,13.53
2019-02-02T23:18:58.243Z,13.83
2019-02-02T23:21:02.162Z,12.80
2019-02-02T23:23:05.892Z,12.97
2019-02-02T23:25:09.626Z,11.67
2019-02-02T23:27:13.713Z,11.63
2019-02-02T23:29:17.425Z,12.67
2019-02-02T23:31:21.333Z,12.03
2019-02-02T23:33:25.405Z,11.93
2019-02-02T23:35:29.417Z,12.90
2019-02-02T23:37:33.273Z,13.83
2019-02-02T23:39:36.999Z,15.60
2019-02-02T23:41:40.804Z,13.97
2019-02-02T23:43:44.584Z,12.07
2019-02-02T23:45:48.618Z,11.60
2019-02-02T23:47:52.471Z,12.03
2019-02-02T23:49:56.268Z,12.37
2019-02-02T23:52:00.078Z,13.00
2019-02-02T23:54:03.935Z,12.67
2019-02-02T23:56:07.678Z,13.33
2019-02-02T23:58:11.505Z,13.17
